sensor_id;sensor_type;location;lat;lon;timestamp;P1;durP1;ratioP1;P2;durP2;ratioP2
14817;SDS011;7500;57.698;11.986;2022-08-18T00:00:08;9.33;;;3.00;;
14817;SDS011;7500;57.698;11.986;2022-08-18T00:02:37;7.37;;;2.87;;
14817;SDS011;7500;57.698;11.986;2022-08-18T00:05:06;8.73;;;2.53;;
14817;SDS011;7500;57.698;11.986;2022-08-18T00:07:34;6.33;;;2.80;;
14817;SDS011;7500;57.698;11.986;2022-08-18T00:10:02;6.27;;;2.57;;
14817;SDS011;7500;57.698;11.986;2022-08-18T00:12:32;5.73;;;2.77;;
14817;SDS011;7500;57.698;11.986;2022-08-18T00:15:00;7.67;;;2.73;;
14817;SDS011;7500;57.698;11.986;2022-08-18T00:17:31;7.63;;;3.00;;
14817;SDS011;7500;57.698;11.986;2022-08-18T00:19:59;7.40;;;2.70;;
14817;SDS011;7500;57.698;11.986;2022-08-18T00:22:26;6.90;;;2.70;;
14817;SDS011;7500;57.698;11.986;2022-08-18T00:24:54;7.73;;;2.83;;
14817;SDS011;7500;57.698;11.986;2022-08-18T00:27:23;7.77;;;2.80;;
14817;SDS011;7500;57.698;11.986;2022-08-18T00:29:51;9.40;;;2.73;;
14817;SDS011;7500;57.698;11.986;2022-08-18T00:32:20;6.83;;;2.63;;
14817;SDS011;7500;57.698;11.986;2022-08-18T00:34:50;6.07;;;3.03;;
14817;SDS011;7500;57.698;11.986;2022-08-18T00:37:17;7.17;;;2.90;;
14817;SDS011;7500;57.698;11.986;2022-08-18T00:39:45;5.73;;;3.10;;
14817;SDS011;7500;57.698;11.986;2022-08-18T00:42:13;9.43;;;2.73;;
14817;SDS011;7500;57.698;11.986;2022-08-18T00:44:41;10.03;;;3.03;;
14817;SDS011;7500;57.698;11.986;2022-08-18T00:47:08;4.53;;;2.53;;
14817;SDS011;7500;57.698;11.986;2022-08-18T00:49:35;6.97;;;2.67;;
14817;SDS011;7500;57.698;11.986;2022-08-18T00:52:04;7.57;;;2.73;;
14817;SDS011;7500;57.698;11.986;2022-08-18T00:54:32;9.70;;;2.70;;
14817;SDS011;7500;57.698;11.986;2022-08-18T00:57:01;6.80;;;2.50;;
14817;SDS011;7500;57.698;11.986;2022-08-18T00:59:30;9.43;;;3.07;;
14817;SDS011;7500;57.698;11.986;2022-08-18T01:02:01;7.87;;;2.70;;
14817;SDS011;7500;57.698;11.986;2022-08-18T01:04:32;8.97;;;2.63;;
14817;SDS011;7500;57.698;11.986;2022-08-18T01:07:07;5.33;;;2.40;;
14817;SDS011;7500;57.698;11.986;2022-08-18T01:09:38;8.90;;;3.00;;
14817;SDS011;7500;57.698;11.986;2022-08-18T01:12:05;5.47;;;2.60;;
14817;SDS011;7500;57.698;11.986;2022-08-18T01:14:32;8.80;;;2.80;;
14817;SDS011;7500;57.698;11.986;2022-08-18T01:16:59;7.03;;;2.70;;
14817;SDS011;7500;57.698;11.986;2022-08-18T01:19:44;6.67;;;2.77;;
14817;SDS011;7500;57.698;11.986;2022-08-18T01:22:31;8.77;;;2.80;;
14817;SDS011;7500;57.698;11.986;2022-08-18T01:25:03;6.77;;;2.73;;
14817;SDS011;7500;57.698;11.986;2022-08-18T01:27:49;6.77;;;3.00;;
14817;SDS011;7500;57.698;11.986;2022-08-18T01:30:17;8.03;;;2.87;;
14817;SDS011;7500;57.698;11.986;2022-08-18T01:32:49;7.57;;;3.13;;
14817;SDS011;7500;57.698;11.986;2022-08-18T01:35:17;5.60;;;3.13;;
14817;SDS011;7500;57.698;11.986;2022-08-18T01:37:45;6.57;;;2.93;;
14817;SDS011;7500;57.698;11.986;2022-08-18T01:40:14;8.23;;;3.00;;
14817;SDS011;7500;57.698;11.986;2022-08-18T01:42:42;8.77;;;3.67;;
14817;SDS011;7500;57.698;11.986;2022-08-18T01:45:10;11.47;;;3.73;;
14817;SDS011;7500;57.698;11.986;2022-08-18T01:47:38;8.63;;;3.77;;
14817;SDS011;7500;57.698;11.986;2022-08-18T01:50:06;10.43;;;3.80;;
14817;SDS011;7500;57.698;11.986;2022-08-18T01:52:34;9.63;;;4.07;;
14817;SDS011;7500;57.698;11.986;2022-08-18T01:55:01;6.77;;;3.97;;
14817;SDS011;7500;57.698;11.986;2022-08-18T01:57:30;12.27;;;4.47;;
14817;SDS011;7500;57.698;11.986;2022-08-18T01:59:57;9.13;;;3.90;;
14817;SDS011;7500;57.698;11.986;2022-08-18T02:02:27;7.23;;;4.80;;
14817;SDS011;7500;57.698;11.986;2022-08-18T02:04:59;6.33;;;4.60;;
14817;SDS011;7500;57.698;11.986;2022-08-18T02:07:29;21.20;;;5.50;;
14817;SDS011;7500;57.698;11.986;2022-08-18T02:09:56;7.67;;;4.50;;
14817;SDS011;7500;57.698;11.986;2022-08-18T02:12:23;5.93;;;4.20;;
14817;SDS011;7500;57.698;11.986;2022-08-18T02:14:51;9.90;;;5.20;;
14817;SDS011;7500;57.698;11.986;2022-08-18T02:17:18;6.40;;;4.47;;
14817;SDS011;7500;57.698;11.986;2022-08-18T02:19:45;15.00;;;5.23;;
14817;SDS011;7500;57.698;11.986;2022-08-18T02:22:14;8.33;;;4.67;;
14817;SDS011;7500;57.698;11.986;2022-08-18T02:24:43;7.93;;;5.40;;
14817;SDS011;7500;57.698;11.986;2022-08-18T02:27:12;5.93;;;5.20;;
14817;SDS011;7500;57.698;11.986;2022-08-18T02:29:41;9.10;;;5.20;;
14817;SDS011;7500;57.698;11.986;2022-08-18T02:32:09;9.60;;;5.67;;
14817;SDS011;7500;57.698;11.986;2022-08-18T02:34:36;11.40;;;5.67;;
14817;SDS011;7500;57.698;11.986;2022-08-18T02:37:03;7.40;;;5.77;;
14817;SDS011;7500;57.698;11.986;2022-08-18T02:39:32;9.47;;;4.43;;
14817;SDS011;7500;57.698;11.986;2022-08-18T02:41:59;7.53;;;3.90;;
14817;SDS011;7500;57.698;11.986;2022-08-18T02:44:26;8.63;;;4.10;;
14817;SDS011;7500;57.698;11.986;2022-08-18T02:46:53;8.13;;;4.80;;
14817;SDS011;7500;57.698;11.986;2022-08-18T02:49:22;9.20;;;4.50;;
14817;SDS011;7500;57.698;11.986;2022-08-18T02:51:49;7.60;;;4.87;;
14817;SDS011;7500;57.698;11.986;2022-08-18T02:54:17;8.07;;;4.90;;
14817;SDS011;7500;57.698;11.986;2022-08-18T02:56:44;8.00;;;4.80;;
14817;SDS011;7500;57.698;11.986;2022-08-18T02:59:12;7.60;;;3.90;;
14817;SDS011;7500;57.698;11.986;2022-08-18T03:01:41;6.93;;;3.77;;
14817;SDS011;7500;57.698;11.986;2022-08-18T03:04:11;6.73;;;4.10;;
14817;SDS011;7500;57.698;11.986;2022-08-18T03:06:41;9.50;;;4.20;;
14817;SDS011;7500;57.698;11.986;2022-08-18T03:09:10;11.33;;;5.00;;
14817;SDS011;7500;57.698;11.986;2022-08-18T03:11:39;10.60;;;4.80;;
14817;SDS011;7500;57.698;11.986;2022-08-18T03:14:06;9.97;;;6.00;;
14817;SDS011;7500;57.698;11.986;2022-08-18T03:16:33;10.87;;;6.97;;
14817;SDS011;7500;57.698;11.986;2022-08-18T03:19:02;11.30;;;7.23;;
14817;SDS011;7500;57.698;11.986;2022-08-18T03:21:30;13.53;;;8.13;;
14817;SDS011;7500;57.698;11.986;2022-08-18T03:24:00;10.73;;;7.63;;
14817;SDS011;7500;57.698;11.986;2022-08-18T03:26:28;11.77;;;7.57;;
14817;SDS011;7500;57.698;11.986;2022-08-18T03:28:57;10.90;;;7.53;;
14817;SDS011;7500;57.698;11.986;2022-08-18T03:31:25;15.07;;;7.50;;
14817;SDS011;7500;57.698;11.986;2022-08-18T03:33:55;11.43;;;7.63;;
14817;SDS011;7500;57.698;11.986;2022-08-18T03:36:25;11.37;;;6.40;;
14817;SDS011;7500;57.698;11.986;2022-08-18T03:38:53;14.57;;;6.67;;
14817;SDS011;7500;57.698;11.986;2022-08-18T03:41:24;11.07;;;7.03;;
14817;SDS011;7500;57.698;11.986;2022-08-18T03:43:52;12.03;;;6.97;;
14817;SDS011;7500;57.698;11.986;2022-08-18T03:46:20;8.87;;;6.97;;
14817;SDS011;7500;57.698;11.986;2022-08-18T03:48:48;11.93;;;7.73;;
14817;SDS011;7500;57.698;11.986;2022-08-18T03:51:22;12.97;;;7.90;;
14817;SDS011;7500;57.698;11.986;2022-08-18T03:53:51;12.73;;;8.27;;
14817;SDS011;7500;57.698;11.986;2022-08-18T03:56:21;13.80;;;7.33;;
14817;SDS011;7500;57.698;11.986;2022-08-18T03:58:52;12.53;;;7.60;;
14817;SDS011;7500;57.698;11.986;2022-08-18T04:01:22;11.13;;;6.60;;
14817;SDS011;7500;57.698;11.986;2022-08-18T04:03:52;9.47;;;6.53;;
14817;SDS011;7500;57.698;11.986;2022-08-18T04:06:21;10.80;;;6.93;;
14817;SDS011;7500;57.698;11.986;2022-08-18T04:08:50;9.03;;;6.67;;
14817;SDS011;7500;57.698;11.986;2022-08-18T04:11:17;10.57;;;6.80;;
14817;SDS011;7500;57.698;11.986;2022-08-18T04:13:45;13.27;;;6.13;;
14817;SDS011;7500;57.698;11.986;2022-08-18T04:16:13;10.20;;;7.30;;
14817;SDS011;7500;57.698;11.986;2022-08-18T04:18:39;10.33;;;7.27;;
14817;SDS011;7500;57.698;11.986;2022-08-18T04:21:08;9.63;;;7.73;;
14817;SDS011;7500;57.698;11.986;2022-08-18T04:23:36;13.70;;;8.40;;
14817;SDS011;7500;57.698;11.986;2022-08-18T04:26:05;11.33;;;8.03;;
14817;SDS011;7500;57.698;11.986;2022-08-18T04:28:33;10.97;;;9.67;;
14817;SDS011;7500;57.698;11.986;2022-08-18T04:31:06;11.10;;;8.93;;
14817;SDS011;7500;57.698;11.986;2022-08-18T04:33:33;9.77;;;8.77;;
14817;SDS011;7500;57.698;11.986;2022-08-18T04:36:05;12.47;;;9.57;;
14817;SDS011;7500;57.698;11.986;2022-08-18T04:38:34;12.63;;;8.93;;
14817;SDS011;7500;57.698;11.986;2022-08-18T04:41:01;12.23;;;8.80;;
14817;SDS011;7500;57.698;11.986;2022-08-18T04:43:29;13.20;;;9.17;;
14817;SDS011;7500;57.698;11.986;2022-08-18T04:45:56;12.17;;;8.87;;
14817;SDS011;7500;57.698;11.986;2022-08-18T04:48:27;13.17;;;8.57;;
14817;SDS011;7500;57.698;11.986;2022-08-18T04:51:01;13.50;;;9.27;;
14817;SDS011;7500;57.698;11.986;2022-08-18T04:53:30;12.93;;;10.07;;
14817;SDS011;7500;57.698;11.986;2022-08-18T04:56:15;11.60;;;9.33;;
14817;SDS011;7500;57.698;11.986;2022-08-18T04:58:50;12.40;;;9.70;;
14817;SDS011;7500;57.698;11.986;2022-08-18T05:01:19;11.00;;;9.53;;
14817;SDS011;7500;57.698;11.986;2022-08-18T05:03:56;15.07;;;10.17;;
14817;SDS011;7500;57.698;11.986;2022-08-18T05:06:25;11.60;;;9.80;;
14817;SDS011;7500;57.698;11.986;2022-08-18T05:08:54;16.67;;;11.60;;
14817;SDS011;7500;57.698;11.986;2022-08-18T05:11:22;14.27;;;10.77;;
14817;SDS011;7500;57.698;11.986;2022-08-18T05:13:52;12.40;;;9.87;;
14817;SDS011;7500;57.698;11.986;2022-08-18T05:16:22;15.30;;;10.57;;
14817;SDS011;7500;57.698;11.986;2022-08-18T05:18:49;11.10;;;10.10;;
14817;SDS011;7500;57.698;11.986;2022-08-18T05:21:19;15.27;;;12.50;;
14817;SDS011;7500;57.698;11.986;2022-08-18T05:23:46;16.73;;;12.70;;
14817;SDS011;7500;57.698;11.986;2022-08-18T05:26:15;13.97;;;11.93;;
14817;SDS011;7500;57.698;11.986;2022-08-18T05:28:43;15.23;;;12.57;;
14817;SDS011;7500;57.698;11.986;2022-08-18T05:31:12;15.83;;;12.87;;
14817;SDS011;7500;57.698;11.986;2022-08-18T05:33:40;15.93;;;14.23;;
14817;SDS011;7500;57.698;11.986;2022-08-18T05:36:09;20.83;;;16.63;;
14817;SDS011;7500;57.698;11.986;2022-08-18T05:38:50;18.87;;;16.87;;
14817;SDS011;7500;57.698;11.986;2022-08-18T05:41:26;19.50;;;17.40;;
14817;SDS011;7500;57.698;11.986;2022-08-18T05:43:57;21.00;;;18.70;;
14817;SDS011;7500;57.698;11.986;2022-08-18T05:46:29;24.20;;;21.57;;
14817;SDS011;7500;57.698;11.986;2022-08-18T05:49:03;23.00;;;20.53;;
14817;SDS011;7500;57.698;11.986;2022-08-18T05:51:32;22.47;;;20.30;;
14817;SDS011;7500;57.698;11.986;2022-08-18T05:54:04;23.80;;;19.97;;
14817;SDS011;7500;57.698;11.986;2022-08-18T05:56:51;23.67;;;21.17;;
14817;SDS011;7500;57.698;11.986;2022-08-18T05:59:23;26.20;;;22.47;;
14817;SDS011;7500;57.698;11.986;2022-08-18T06:01:55;26.27;;;23.43;;
14817;SDS011;7500;57.698;11.986;2022-08-18T06:04:33;28.07;;;25.17;;
14817;SDS011;7500;57.698;11.986;2022-08-18T06:07:07;27.50;;;24.67;;
14817;SDS011;7500;57.698;11.986;2022-08-18T06:09:40;28.27;;;25.40;;
14817;SDS011;7500;57.698;11.986;2022-08-18T06:12:16;27.50;;;24.70;;
14817;SDS011;7500;57.698;11.986;2022-08-18T06:14:47;27.93;;;25.13;;
14817;SDS011;7500;57.698;11.986;2022-08-18T06:17:23;27.90;;;24.93;;
14817;SDS011;7500;57.698;11.986;2022-08-18T06:20:14;27.87;;;24.90;;
14817;SDS011;7500;57.698;11.986;2022-08-18T06:22:52;29.83;;;26.83;;
14817;SDS011;7500;57.698;11.986;2022-08-18T06:25:33;29.10;;;26.20;;
14817;SDS011;7500;57.698;11.986;2022-08-18T06:28:06;30.30;;;25.97;;
14817;SDS011;7500;57.698;11.986;2022-08-18T06:30:42;29.20;;;26.10;;
14817;SDS011;7500;57.698;11.986;2022-08-18T06:33:19;28.67;;;25.63;;
14817;SDS011;7500;57.698;11.986;2022-08-18T06:35:59;29.93;;;26.70;;
14817;SDS011;7500;57.698;11.986;2022-08-18T06:38:34;28.20;;;25.40;;
14817;SDS011;7500;57.698;11.986;2022-08-18T06:41:13;30.57;;;26.13;;
14817;SDS011;7500;57.698;11.986;2022-08-18T06:43:49;29.30;;;25.87;;
14817;SDS011;7500;57.698;11.986;2022-08-18T06:46:25;30.07;;;26.97;;
14817;SDS011;7500;57.698;11.986;2022-08-18T06:48:59;30.73;;;26.73;;
14817;SDS011;7500;57.698;11.986;2022-08-18T06:51:30;30.07;;;26.77;;
14817;SDS011;7500;57.698;11.986;2022-08-18T06:53:58;29.27;;;26.33;;
14817;SDS011;7500;57.698;11.986;2022-08-18T06:56:35;28.93;;;25.90;;
14817;SDS011;7500;57.698;11.986;2022-08-18T06:59:13;29.73;;;26.67;;
14817;SDS011;7500;57.698;11.986;2022-08-18T07:01:50;29.17;;;26.20;;
14817;SDS011;7500;57.698;11.986;2022-08-18T07:07:11;27.13;;;24.43;;
14817;SDS011;7500;57.698;11.986;2022-08-18T07:09:41;27.70;;;24.90;;
14817;SDS011;7500;57.698;11.986;2022-08-18T07:12:09;26.90;;;24.20;;
14817;SDS011;7500;57.698;11.986;2022-08-18T07:14:44;27.27;;;24.37;;
14817;SDS011;7500;57.698;11.986;2022-08-18T07:17:13;26.17;;;23.53;;
14817;SDS011;7500;57.698;11.986;2022-08-18T07:19:53;28.17;;;25.37;;
14817;SDS011;7500;57.698;11.986;2022-08-18T07:22:22;28.83;;;26.03;;
14817;SDS011;7500;57.698;11.986;2022-08-18T07:24:50;29.00;;;26.10;;
14817;SDS011;7500;57.698;11.986;2022-08-18T07:27:20;29.17;;;26.27;;
14817;SDS011;7500;57.698;11.986;2022-08-18T07:29:58;29.20;;;26.40;;
14817;SDS011;7500;57.698;11.986;2022-08-18T07:32:29;27.03;;;24.43;;
14817;SDS011;7500;57.698;11.986;2022-08-18T07:35:00;27.83;;;25.10;;
14817;SDS011;7500;57.698;11.986;2022-08-18T07:37:31;28.33;;;25.70;;
14817;SDS011;7500;57.698;11.986;2022-08-18T07:40:17;27.97;;;25.17;;
14817;SDS011;7500;57.698;11.986;2022-08-18T07:42:50;27.03;;;24.53;;
14817;SDS011;7500;57.698;11.986;2022-08-18T07:45:22;26.87;;;24.23;;
14817;SDS011;7500;57.698;11.986;2022-08-18T07:47:53;28.03;;;25.33;;
14817;SDS011;7500;57.698;11.986;2022-08-18T07:50:25;26.43;;;23.93;;
14817;SDS011;7500;57.698;11.986;2022-08-18T07:52:58;28.27;;;25.57;;
14817;SDS011;7500;57.698;11.986;2022-08-18T07:55:32;27.53;;;24.93;;
14817;SDS011;7500;57.698;11.986;2022-08-18T07:58:07;29.10;;;26.20;;
14817;SDS011;7500;57.698;11.986;2022-08-18T08:00:45;29.23;;;26.43;;
14817;SDS011;7500;57.698;11.986;2022-08-18T08:03:20;30.53;;;27.53;;
14817;SDS011;7500;57.698;11.986;2022-08-18T08:05:57;31.00;;;28.03;;
14817;SDS011;7500;57.698;11.986;2022-08-18T08:08:33;29.07;;;26.13;;
14817;SDS011;7500;57.698;11.986;2022-08-18T08:11:07;29.30;;;26.53;;
14817;SDS011;7500;57.698;11.986;2022-08-18T08:13:47;28.83;;;26.03;;
14817;SDS011;7500;57.698;11.986;2022-08-18T08:16:26;27.77;;;25.07;;
14817;SDS011;7500;57.698;11.986;2022-08-18T08:19:02;27.13;;;24.47;;
14817;SDS011;7500;57.698;11.986;2022-08-18T08:21:46;26.83;;;24.23;;
14817;SDS011;7500;57.698;11.986;2022-08-18T08:24:19;26.97;;;24.43;;
14817;SDS011;7500;57.698;11.986;2022-08-18T08:26:55;26.37;;;23.87;;
14817;SDS011;7500;57.698;11.986;2022-08-18T08:29:36;23.23;;;21.03;;
14817;SDS011;7500;57.698;11.986;2022-08-18T08:32:11;23.57;;;21.17;;
14817;SDS011;7500;57.698;11.986;2022-08-18T08:34:49;23.20;;;21.10;;
14817;SDS011;7500;57.698;11.986;2022-08-18T08:37:20;25.93;;;23.23;;
14817;SDS011;7500;57.698;11.986;2022-08-18T08:39:53;23.57;;;21.17;;
14817;SDS011;7500;57.698;11.986;2022-08-18T08:42:27;21.80;;;19.70;;
14817;SDS011;7500;57.698;11.986;2022-08-18T08:45:07;21.77;;;19.67;;
14817;SDS011;7500;57.698;11.986;2022-08-18T08:47:39;21.63;;;19.50;;
14817;SDS011;7500;57.698;11.986;2022-08-18T08:50:16;21.97;;;19.97;;
14817;SDS011;7500;57.698;11.986;2022-08-18T08:52:48;20.47;;;18.50;;
14817;SDS011;7500;57.698;11.986;2022-08-18T08:55:20;20.80;;;18.73;;
14817;SDS011;7500;57.698;11.986;2022-08-18T08:58:02;19.80;;;17.90;;
14817;SDS011;7500;57.698;11.986;2022-08-18T09:00:43;18.03;;;16.40;;
14817;SDS011;7500;57.698;11.986;2022-08-18T09:03:17;17.17;;;15.53;;
14817;SDS011;7500;57.698;11.986;2022-08-18T09:05:54;18.50;;;16.30;;
14817;SDS011;7500;57.698;11.986;2022-08-18T09:08:44;16.70;;;15.27;;
14817;SDS011;7500;57.698;11.986;2022-08-18T09:11:33;15.23;;;13.63;;
14817;SDS011;7500;57.698;11.986;2022-08-18T09:14:16;16.37;;;14.87;;
14817;SDS011;7500;57.698;11.986;2022-08-18T09:17:10;16.33;;;14.83;;
14817;SDS011;7500;57.698;11.986;2022-08-18T09:19:58;15.97;;;14.50;;
14817;SDS011;7500;57.698;11.986;2022-08-18T09:22:37;17.27;;;15.67;;
14817;SDS011;7500;57.698;11.986;2022-08-18T09:28:09;17.50;;;15.80;;
14817;SDS011;7500;57.698;11.986;2022-08-18T09:30:41;14.53;;;13.07;;
14817;SDS011;7500;57.698;11.986;2022-08-18T09:33:18;15.10;;;13.80;;
14817;SDS011;7500;57.698;11.986;2022-08-18T09:38:52;14.00;;;12.80;;
14817;SDS011;7500;57.698;11.986;2022-08-18T09:41:44;14.67;;;13.00;;
14817;SDS011;7500;57.698;11.986;2022-08-18T09:47:55;14.10;;;12.13;;
14817;SDS011;7500;57.698;11.986;2022-08-18T09:50:35;12.53;;;11.53;;
14817;SDS011;7500;57.698;11.986;2022-08-18T09:53:30;12.80;;;11.60;;
14817;SDS011;7500;57.698;11.986;2022-08-18T09:56:03;12.53;;;11.43;;
14817;SDS011;7500;57.698;11.986;2022-08-18T09:58:51;12.00;;;11.00;;
14817;SDS011;7500;57.698;11.986;2022-08-18T10:01:21;11.50;;;10.50;;
14817;SDS011;7500;57.698;11.986;2022-08-18T10:04:16;12.67;;;11.47;;
14817;SDS011;7500;57.698;11.986;2022-08-18T10:09:59;11.60;;;10.40;;
14817;SDS011;7500;57.698;11.986;2022-08-18T10:12:41;10.97;;;10.07;;
14817;SDS011;7500;57.698;11.986;2022-08-18T10:15:19;10.37;;;9.53;;
14817;SDS011;7500;57.698;11.986;2022-08-18T10:18:04;9.67;;;8.83;;
14817;SDS011;7500;57.698;11.986;2022-08-18T10:20:44;9.30;;;8.57;;
14817;SDS011;7500;57.698;11.986;2022-08-18T10:29:10;9.53;;;8.53;;
14817;SDS011;7500;57.698;11.986;2022-08-18T10:32:17;8.37;;;7.57;;
14817;SDS011;7500;57.698;11.986;2022-08-18T10:34:50;8.90;;;8.20;;
14817;SDS011;7500;57.698;11.986;2022-08-18T10:37:18;9.10;;;8.40;;
14817;SDS011;7500;57.698;11.986;2022-08-18T10:39:50;8.37;;;7.77;;
14817;SDS011;7500;57.698;11.986;2022-08-18T10:42:21;8.20;;;7.57;;
14817;SDS011;7500;57.698;11.986;2022-08-18T10:44:54;7.23;;;6.63;;
14817;SDS011;7500;57.698;11.986;2022-08-18T10:47:28;7.57;;;6.83;;
14817;SDS011;7500;57.698;11.986;2022-08-18T10:49:56;7.10;;;6.50;;
14817;SDS011;7500;57.698;11.986;2022-08-18T10:52:33;7.20;;;6.53;;
14817;SDS011;7500;57.698;11.986;2022-08-18T10:55:17;8.50;;;7.73;;
14817;SDS011;7500;57.698;11.986;2022-08-18T10:58:04;7.47;;;6.97;;
14817;SDS011;7500;57.698;11.986;2022-08-18T11:00:52;7.10;;;6.50;;
14817;SDS011;7500;57.698;11.986;2022-08-18T11:03:44;6.57;;;6.17;;
14817;SDS011;7500;57.698;11.986;2022-08-18T11:06:28;7.33;;;6.70;;
14817;SDS011;7500;57.698;11.986;2022-08-18T11:09:03;7.40;;;6.80;;
14817;SDS011;7500;57.698;11.986;2022-08-18T11:11:33;6.63;;;5.97;;
14817;SDS011;7500;57.698;11.986;2022-08-18T11:14:04;6.47;;;6.07;;
14817;SDS011;7500;57.698;11.986;2022-08-18T11:16:43;6.93;;;6.23;;
14817;SDS011;7500;57.698;11.986;2022-08-18T11:19:17;6.33;;;5.73;;
14817;SDS011;7500;57.698;11.986;2022-08-18T11:21:47;6.73;;;6.13;;
14817;SDS011;7500;57.698;11.986;2022-08-18T11:24:16;10.00;;;6.40;;
14817;SDS011;7500;57.698;11.986;2022-08-18T11:26:48;7.60;;;6.07;;
14817;SDS011;7500;57.698;11.986;2022-08-18T11:29:17;7.13;;;6.60;;
14817;SDS011;7500;57.698;11.986;2022-08-18T11:31:47;7.03;;;6.53;;
14817;SDS011;7500;57.698;11.986;2022-08-18T11:34:16;7.15;;;6.55;;
14817;SDS011;7500;57.698;11.986;2022-08-18T11:36:53;7.75;;;7.07;;
14817;SDS011;7500;57.698;11.986;2022-08-18T11:39:25;6.57;;;6.17;;
14817;SDS011;7500;57.698;11.986;2022-08-18T11:41:54;7.27;;;6.70;;
14817;SDS011;7500;57.698;11.986;2022-08-18T11:44:24;7.68;;;7.07;;
14817;SDS011;7500;57.698;11.986;2022-08-18T11:47:06;7.37;;;6.80;;
14817;SDS011;7500;57.698;11.986;2022-08-18T11:49:34;7.60;;;6.82;;
14817;SDS011;7500;57.698;11.986;2022-08-18T11:52:03;6.87;;;6.37;;
14817;SDS011;7500;57.698;11.986;2022-08-18T11:54:44;7.10;;;6.60;;
14817;SDS011;7500;57.698;11.986;2022-08-18T12:03:29;6.73;;;6.23;;
14817;SDS011;7500;57.698;11.986;2022-08-18T12:06:08;6.93;;;6.37;;
14817;SDS011;7500;57.698;11.986;2022-08-18T12:08:49;7.23;;;6.73;;
14817;SDS011;7500;57.698;11.986;2022-08-18T12:11:22;6.95;;;6.35;;
14817;SDS011;7500;57.698;11.986;2022-08-18T12:13:58;6.95;;;6.40;;
14817;SDS011;7500;57.698;11.986;2022-08-18T12:16:31;6.95;;;6.40;;
14817;SDS011;7500;57.698;11.986;2022-08-18T12:19:02;6.63;;;6.03;;
14817;SDS011;7500;57.698;11.986;2022-08-18T12:21:29;7.13;;;6.50;;
14817;SDS011;7500;57.698;11.986;2022-08-18T12:23:56;7.80;;;6.28;;
14817;SDS011;7500;57.698;11.986;2022-08-18T12:26:23;6.85;;;6.30;;
14817;SDS011;7500;57.698;11.986;2022-08-18T12:28:49;6.70;;;6.20;;
14817;SDS011;7500;57.698;11.986;2022-08-18T12:31:18;7.97;;;7.17;;
14817;SDS011;7500;57.698;11.986;2022-08-18T12:33:45;7.53;;;6.70;;
14817;SDS011;7500;57.698;11.986;2022-08-18T12:36:12;7.53;;;6.60;;
14817;SDS011;7500;57.698;11.986;2022-08-18T12:38:38;7.23;;;6.57;;
14817;SDS011;7500;57.698;11.986;2022-08-18T12:41:08;7.43;;;6.83;;
14817;SDS011;7500;57.698;11.986;2022-08-18T12:43:36;7.20;;;6.50;;
14817;SDS011;7500;57.698;11.986;2022-08-18T12:46:04;6.83;;;6.23;;
14817;SDS011;7500;57.698;11.986;2022-08-18T12:48:35;7.47;;;6.88;;
14817;SDS011;7500;57.698;11.986;2022-08-18T12:51:03;7.72;;;6.95;;
14817;SDS011;7500;57.698;11.986;2022-08-18T12:53:30;7.10;;;6.40;;
14817;SDS011;7500;57.698;11.986;2022-08-18T12:55:58;8.48;;;7.68;;
14817;SDS011;7500;57.698;11.986;2022-08-18T12:58:25;7.60;;;6.80;;
14817;SDS011;7500;57.698;11.986;2022-08-18T13:00:52;7.45;;;6.85;;
14817;SDS011;7500;57.698;11.986;2022-08-18T13:03:20;7.10;;;6.40;;
14817;SDS011;7500;57.698;11.986;2022-08-18T13:05:48;7.40;;;6.75;;
14817;SDS011;7500;57.698;11.986;2022-08-18T13:08:16;7.60;;;6.90;;
14817;SDS011;7500;57.698;11.986;2022-08-18T13:10:45;7.25;;;6.68;;
14817;SDS011;7500;57.698;11.986;2022-08-18T13:13:13;7.53;;;6.40;;
14817;SDS011;7500;57.698;11.986;2022-08-18T13:15:41;7.00;;;6.47;;
14817;SDS011;7500;57.698;11.986;2022-08-18T13:18:08;6.75;;;6.25;;
14817;SDS011;7500;57.698;11.986;2022-08-18T13:20:35;7.32;;;6.63;;
14817;SDS011;7500;57.698;11.986;2022-08-18T13:23:03;8.48;;;6.65;;
14817;SDS011;7500;57.698;11.986;2022-08-18T13:25:30;8.13;;;7.40;;
14817;SDS011;7500;57.698;11.986;2022-08-18T13:27:57;7.30;;;6.70;;
14817;SDS011;7500;57.698;11.986;2022-08-18T13:30:24;7.07;;;6.50;;
14817;SDS011;7500;57.698;11.986;2022-08-18T13:32:51;7.03;;;6.30;;
14817;SDS011;7500;57.698;11.986;2022-08-18T13:35:19;6.97;;;6.38;;
14817;SDS011;7500;57.698;11.986;2022-08-18T13:37:46;6.60;;;6.10;;
14817;SDS011;7500;57.698;11.986;2022-08-18T13:40:14;6.60;;;6.10;;
14817;SDS011;7500;57.698;11.986;2022-08-18T13:42:43;8.38;;;6.05;;
14817;SDS011;7500;57.698;11.986;2022-08-18T13:45:13;6.70;;;6.20;;
14817;SDS011;7500;57.698;11.986;2022-08-18T13:47:41;9.38;;;6.78;;
14817;SDS011;7500;57.698;11.986;2022-08-18T13:50:09;8.93;;;6.50;;
14817;SDS011;7500;57.698;11.986;2022-08-18T13:52:36;6.95;;;6.15;;
14817;SDS011;7500;57.698;11.986;2022-08-18T13:55:06;6.65;;;6.15;;
14817;SDS011;7500;57.698;11.986;2022-08-18T13:57:39;6.95;;;6.35;;
14817;SDS011;7500;57.698;11.986;2022-08-18T14:00:13;8.00;;;7.00;;
14817;SDS011;7500;57.698;11.986;2022-08-18T14:02:41;7.57;;;6.97;;
14817;SDS011;7500;57.698;11.986;2022-08-18T14:05:09;8.02;;;6.88;;
14817;SDS011;7500;57.698;11.986;2022-08-18T14:07:35;7.63;;;7.00;;
14817;SDS011;7500;57.698;11.986;2022-08-18T14:10:03;8.27;;;7.63;;
14817;SDS011;7500;57.698;11.986;2022-08-18T14:12:33;7.85;;;7.30;;
14817;SDS011;7500;57.698;11.986;2022-08-18T14:15:03;8.30;;;7.60;;
14817;SDS011;7500;57.698;11.986;2022-08-18T14:17:32;8.75;;;7.95;;
14817;SDS011;7500;57.698;11.986;2022-08-18T14:19:59;10.00;;;7.43;;
14817;SDS011;7500;57.698;11.986;2022-08-18T14:22:44;8.18;;;7.57;;
14817;SDS011;7500;57.698;11.986;2022-08-18T14:25:29;8.98;;;8.13;;
14817;SDS011;7500;57.698;11.986;2022-08-18T14:28:12;8.40;;;7.70;;
14817;SDS011;7500;57.698;11.986;2022-08-18T14:30:40;8.68;;;8.02;;
14817;SDS011;7500;57.698;11.986;2022-08-18T14:33:07;9.35;;;8.43;;
14817;SDS011;7500;57.698;11.986;2022-08-18T14:35:35;10.02;;;7.80;;
14817;SDS011;7500;57.698;11.986;2022-08-18T14:38:02;8.80;;;7.88;;
14817;SDS011;7500;57.698;11.986;2022-08-18T14:40:32;8.48;;;7.78;;
14817;SDS011;7500;57.698;11.986;2022-08-18T14:43:00;8.40;;;7.57;;
14817;SDS011;7500;57.698;11.986;2022-08-18T14:45:27;8.30;;;7.60;;
14817;SDS011;7500;57.698;11.986;2022-08-18T14:47:56;8.32;;;7.63;;
14817;SDS011;7500;57.698;11.986;2022-08-18T14:50:23;8.70;;;8.10;;
14817;SDS011;7500;57.698;11.986;2022-08-18T14:52:50;8.05;;;7.43;;
14817;SDS011;7500;57.698;11.986;2022-08-18T14:55:17;8.43;;;7.75;;
14817;SDS011;7500;57.698;11.986;2022-08-18T14:57:44;8.13;;;7.43;;
14817;SDS011;7500;57.698;11.986;2022-08-18T15:00:12;10.40;;;8.57;;
14817;SDS011;7500;57.698;11.986;2022-08-18T15:02:41;8.60;;;7.90;;
14817;SDS011;7500;57.698;11.986;2022-08-18T15:05:10;9.07;;;8.00;;
14817;SDS011;7500;57.698;11.986;2022-08-18T15:07:38;8.63;;;7.75;;
14817;SDS011;7500;57.698;11.986;2022-08-18T15:10:05;9.20;;;8.37;;
14817;SDS011;7500;57.698;11.986;2022-08-18T15:12:33;8.90;;;8.10;;
14817;SDS011;7500;57.698;11.986;2022-08-18T15:15:00;9.47;;;8.50;;
14817;SDS011;7500;57.698;11.986;2022-08-18T15:17:27;12.33;;;8.67;;
14817;SDS011;7500;57.698;11.986;2022-08-18T15:19:55;10.07;;;8.63;;
14817;SDS011;7500;57.698;11.986;2022-08-18T15:22:24;9.30;;;8.37;;
14817;SDS011;7500;57.698;11.986;2022-08-18T15:25:08;10.30;;;9.30;;
14817;SDS011;7500;57.698;11.986;2022-08-18T15:27:52;10.85;;;8.95;;
14817;SDS011;7500;57.698;11.986;2022-08-18T15:30:20;12.07;;;9.20;;
14817;SDS011;7500;57.698;11.986;2022-08-18T15:32:47;11.00;;;9.53;;